createdAt,value
2016-07-06T00:06:43.543Z,0
2016-07-06T00:07:43.459Z,0
2016-07-06T00:08:43.621Z,0
2016-07-06T00:09:43.470Z,0
2016-07-06T00:10:43.491Z,0
2016-07-06T00:11:43.430Z,0
2016-07-06T00:12:43.459Z,0
2016-07-06T00:13:43.475Z,0
2016-07-06T00:14:43.528Z,0
2016-07-06T00:15:43.475Z,0
2016-07-06T00:16:43.445Z,0
2016-07-06T00:17:43.394Z,0
2016-07-06T00:18:44.425Z,0
2016-07-06T00:19:43.432Z,0
2016-07-06T00:20:43.461Z,0
2016-07-06T00:21:45.846Z,0
2016-07-06T00:22:43.535Z,0
2016-07-06T00:23:43.413Z,0
2016-07-06T00:24:43.401Z,0
2016-07-06T00:25:43.761Z,0
2016-07-06T00:26:43.549Z,0
2016-07-06T00:27:43.601Z,0
2016-07-06T00:28:43.889Z,0
2016-07-06T00:29:43.465Z,0
2016-07-06T00:30:43.980Z,0
2016-07-06T00:31:43.427Z,0
2016-07-06T00:32:43.476Z,0
2016-07-06T00:42:43.992Z,0
2016-07-06T00:43:00.629Z,0
2016-07-06T00:44:00.617Z,0
2016-07-06T00:45:00.607Z,0
2016-07-06T00:46:00.652Z,0
2016-07-06T00:47:01.576Z,0
2016-07-06T00:48:00.654Z,0
2016-07-06T00:49:06.105Z,0
2016-07-06T00:50:00.690Z,0
2016-07-06T00:51:00.730Z,0
2016-07-06T00:52:00.636Z,0
2016-07-06T00:53:00.645Z,0
2016-07-06T00:54:00.610Z,0
2016-07-06T00:55:00.599Z,0
2016-07-06T00:56:00.684Z,0
2016-07-06T00:57:00.636Z,0
2016-07-06T00:58:00.629Z,0
2016-07-06T00:59:00.677Z,0
2016-07-06T01:00:00.630Z,0
2016-07-06T01:01:00.642Z,0
2016-07-06T01:02:00.639Z,0
2016-07-06T01:03:00.881Z,0
2016-07-06T01:04:00.673Z,0
2016-07-06T01:05:00.624Z,0
2016-07-06T01:06:00.770Z,0
2016-07-06T01:07:00.581Z,0
2016-07-06T01:08:00.858Z,0
2016-07-06T01:09:00.761Z,0
2016-07-06T01:10:02.440Z,0
2016-07-06T01:11:01.095Z,0
2016-07-06T01:12:00.819Z,0
2016-07-06T01:13:00.641Z,0
2016-07-06T01:14:00.588Z,0
2016-07-06T01:15:00.668Z,0
2016-07-06T01:16:00.750Z,0
2016-07-06T01:17:05.113Z,0
2016-07-06T01:18:01.564Z,0
2016-07-06T01:19:00.609Z,0
2016-07-06T01:20:00.647Z,0
2016-07-06T01:21:00.660Z,0
2016-07-06T01:22:00.604Z,0
2016-07-06T01:23:00.645Z,0
2016-07-06T01:24:00.623Z,0
2016-07-06T01:25:00.683Z,0
2016-07-06T01:26:01.468Z,0
2016-07-06T01:27:01.324Z,0
2016-07-06T01:28:00.707Z,0
2016-07-06T01:29:00.653Z,0
2016-07-06T01:30:00.640Z,0
2016-07-06T01:31:00.630Z,0
2016-07-06T01:32:00.646Z,0
2016-07-06T01:33:00.644Z,0
2016-07-06T01:34:00.616Z,0
2016-07-06T01:35:00.636Z,0
2016-07-06T01:36:00.687Z,0
2016-07-06T01:37:00.672Z,0
2016-07-06T01:38:00.741Z,0
2016-07-06T01:39:00.603Z,0
2016-07-06T01:40:00.702Z,0
2016-07-06T01:41:00.700Z,0
2016-07-06T01:42:00.648Z,0
2016-07-06T01:54:17.872Z,0
2016-07-06T01:55:17.811Z,0
2016-07-06T01:56:17.731Z,0
2016-07-06T01:57:17.854Z,0
2016-07-06T01:58:17.764Z,0
2016-07-06T01:59:17.802Z,0
2016-07-06T02:00:17.814Z,0
2016-07-06T02:01:17.814Z,0
2016-07-06T02:02:17.779Z,0
2016-07-06T02:03:17.788Z,0
2016-07-06T02:04:17.775Z,0
2016-07-06T02:05:17.771Z,0
2016-07-06T02:06:17.820Z,0
2016-07-06T02:07:17.789Z,0
2016-07-06T02:08:17.803Z,0
2016-07-06T02:09:17.766Z,0
2016-07-06T02:10:17.770Z,0
2016-07-06T02:11:17.772Z,0
2016-07-06T02:12:17.809Z,0
2016-07-06T02:13:17.763Z,0
2016-07-06T02:14:17.756Z,0
2016-07-06T02:15:17.787Z,0
2016-07-06T02:16:17.806Z,0
2016-07-06T02:17:17.818Z,0
2016-07-06T02:18:17.845Z,0
2016-07-06T02:19:17.880Z,0
2016-07-06T02:20:17.836Z,0
2016-07-06T02:21:17.810Z,0
2016-07-06T02:22:17.803Z,0
2016-07-06T02:23:17.791Z,0
2016-07-06T02:24:17.819Z,0
2016-07-06T02:25:17.783Z,0
2016-07-06T02:26:17.845Z,0
2016-07-06T02:27:17.779Z,0
2016-07-06T02:28:19.736Z,0
2016-07-06T02:29:17.811Z,0
2016-07-06T02:30:17.792Z,0
2016-07-06T02:31:17.786Z,0
2016-07-06T02:32:18.123Z,0
2016-07-06T02:33:17.773Z,0
2016-07-06T02:34:17.807Z,0
2016-07-06T02:35:17.792Z,0
2016-07-06T02:36:17.816Z,0
2016-07-06T02:37:17.813Z,0
2016-07-06T02:38:18.214Z,0
2016-07-06T02:39:17.836Z,4
2016-07-06T02:40:17.823Z,4
2016-07-06T02:41:17.822Z,4
2016-07-06T02:42:18.020Z,0
2016-07-06T02:43:17.865Z,0
2016-07-06T02:44:17.856Z,4
2016-07-06T02:45:18.785Z,4
2016-07-06T02:46:17.787Z,4
2016-07-06T02:47:17.801Z,4
2016-07-06T02:48:17.776Z,4
2016-07-06T02:49:17.802Z,8
2016-07-06T02:50:24.843Z,8
2016-07-06T02:51:17.987Z,8
2016-07-06T02:52:17.775Z,8
2016-07-06T02:53:17.730Z,8
2016-07-06T02:54:17.781Z,12
2016-07-06T02:55:17.812Z,16
2016-07-06T02:56:17.799Z,20
2016-07-06T02:57:17.800Z,24
2016-07-06T02:58:17.790Z,24
2016-07-06T02:59:17.800Z,32
2016-07-06T03:00:17.761Z,36
2016-07-06T03:01:18.241Z,40
2016-07-06T03:02:17.792Z,44
2016-07-06T03:03:17.832Z,48
2016-07-06T03:04:17.786Z,52
2016-07-06T03:05:17.824Z,60
2016-07-06T03:06:17.811Z,64
2016-07-06T03:07:17.820Z,68
2016-07-06T03:08:17.812Z,76
2016-07-06T03:09:17.828Z,84
2016-07-06T03:10:19.330Z,92
2016-07-06T03:11:18.573Z,96
2016-07-06T03:12:18.040Z,104
2016-07-06T03:13:18.640Z,112
2016-07-06T03:14:17.822Z,120
2016-07-06T03:15:17.828Z,128
2016-07-06T03:16:18.103Z,140
2016-07-06T03:17:17.805Z,152
2016-07-06T03:18:17.769Z,160
2016-07-06T03:19:17.910Z,172
2016-07-06T03:20:17.779Z,176
2016-07-06T03:21:18.657Z,188
2016-07-06T03:22:17.871Z,204
2016-07-06T03:23:17.841Z,212
2016-07-06T03:24:17.787Z,228
2016-07-06T03:25:17.787Z,240
2016-07-06T03:26:17.816Z,256
2016-07-06T03:27:17.766Z,272
2016-07-06T03:28:24.361Z,296
2016-07-06T03:29:17.812Z,320
2016-07-06T03:30:17.837Z,336
2016-07-06T03:31:17.810Z,352
2016-07-06T03:32:17.936Z,376
2016-07-06T03:33:17.826Z,408
2016-07-06T03:34:17.869Z,440
2016-07-06T03:35:17.843Z,480
2016-07-06T03:36:17.812Z,512
2016-07-06T03:37:18.815Z,544
2016-07-06T03:38:17.858Z,580
2016-07-06T03:39:17.809Z,612
2016-07-06T03:40:17.807Z,640
2016-07-06T03:41:17.854Z,668
2016-07-06T03:42:17.784Z,696
2016-07-06T03:43:17.792Z,720
2016-07-06T03:44:17.876Z,748
2016-07-06T03:45:17.812Z,772
2016-07-06T03:46:17.851Z,800
2016-07-06T03:47:17.827Z,828
2016-07-06T03:48:17.840Z,856
2016-07-06T03:49:17.868Z,884
2016-07-06T03:50:17.776Z,920
2016-07-06T03:51:19.120Z,964
2016-07-06T03:52:17.830Z,992
2016-07-06T03:53:17.847Z,1028
2016-07-06T03:54:31.487Z,1064
2016-07-06T03:55:18.851Z,1092
2016-07-06T03:56:17.874Z,1124
2016-07-06T03:57:17.797Z,1160
2016-07-06T03:58:17.795Z,1204
2016-07-06T03:59:17.844Z,1232
2016-07-06T04:00:17.807Z,1252
2016-07-06T04:01:17.851Z,1280
2016-07-06T04:02:17.856Z,1316
2016-07-06T04:03:17.788Z,1348
2016-07-06T04:04:17.836Z,1384
2016-07-06T04:05:17.874Z,1428
2016-07-06T04:06:18.678Z,1472
2016-07-06T04:07:17.785Z,1524
2016-07-06T04:08:17.819Z,1564
2016-07-06T04:09:17.816Z,1608
2016-07-06T04:10:17.856Z,1648
2016-07-06T04:11:17.830Z,1700
2016-07-06T04:12:17.852Z,1724
2016-07-06T04:13:17.850Z,1776
2016-07-06T04:14:17.811Z,1832
2016-07-06T04:15:17.889Z,1872
2016-07-06T04:16:17.863Z,1912
2016-07-06T04:17:17.811Z,1948
2016-07-06T04:18:17.790Z,1940
2016-07-06T04:19:17.825Z,1988
2016-07-06T04:20:17.846Z,1980
2016-07-06T04:21:18.848Z,2012
2016-07-06T04:22:17.898Z,2036
2016-07-06T04:23:17.945Z,2092
2016-07-06T04:24:17.912Z,2112
2016-07-06T04:25:17.842Z,2160
2016-07-06T04:26:17.841Z,2248
2016-07-06T04:27:17.836Z,2348
2016-07-06T04:28:17.824Z,2544
2016-07-06T04:29:17.821Z,2644
2016-07-06T04:30:17.875Z,2704
2016-07-06T04:31:17.856Z,2704
2016-07-06T04:32:17.904Z,2712
2016-07-06T04:33:17.826Z,2788
2016-07-06T04:34:17.882Z,3292
2016-07-06T04:35:17.823Z,4784
2016-07-06T04:36:17.839Z,6336
2016-07-06T04:37:17.894Z,6868
2016-07-06T04:38:17.913Z,7152
2016-07-06T04:39:17.867Z,7356
2016-07-06T04:40:17.938Z,7904
2016-07-06T04:41:17.915Z,7992
2016-07-06T04:42:17.926Z,8280
2016-07-06T04:43:17.935Z,8604
2016-07-06T04:44:17.864Z,8608
2016-07-06T04:45:17.876Z,8908
2016-07-06T04:46:17.868Z,9384
2016-07-06T04:47:17.910Z,8784
2016-07-06T04:48:17.861Z,5376
2016-07-06T04:49:18.270Z,4168
2016-07-06T04:50:17.888Z,3004
2016-07-06T04:51:17.816Z,3064
2016-07-06T04:52:17.895Z,3064
2016-07-06T04:53:17.963Z,4880
2016-07-06T04:54:18.017Z,12104
2016-07-06T04:55:17.899Z,8356
2016-07-06T04:56:17.824Z,7652
2016-07-06T04:57:17.852Z,8624
2016-07-06T04:58:17.872Z,14368
2016-07-06T04:59:17.995Z,13536
2016-07-06T05:00:17.529Z,13344
2016-07-06T05:01:17.894Z,13136
2016-07-06T05:02:17.933Z,12632
2016-07-06T05:03:19.165Z,16256
2016-07-06T05:04:18.114Z,14784
2016-07-06T05:05:17.976Z,7888
2016-07-06T05:06:19.217Z,9600
2016-07-06T05:07:19.049Z,16192
2016-07-06T05:08:17.960Z,11228
2016-07-06T05:09:17.978Z,5060
2016-07-06T05:10:17.837Z,16352
2016-07-06T05:11:17.837Z,7116
2016-07-06T05:12:17.866Z,6796
2016-07-06T05:13:41.190Z,18624
2016-07-06T05:14:20.293Z,6396
2016-07-06T05:15:17.855Z,18336
2016-07-06T05:16:17.866Z,14784
2016-07-06T05:17:18.017Z,13456
2016-07-06T05:18:17.919Z,19328
2016-07-06T05:19:17.868Z,19872
2016-07-06T05:20:17.846Z,5128
2016-07-06T05:21:20.036Z,17408
2016-07-06T05:22:17.902Z,12400
2016-07-06T05:23:17.824Z,14452
2016-07-06T05:24:17.921Z,6864
2016-07-06T05:25:18.029Z,5300
2016-07-06T05:26:18.066Z,23648
2016-07-06T05:27:18.009Z,17312
2016-07-06T05:28:17.891Z,9964
2016-07-06T05:29:18.973Z,4064
2016-07-06T05:30:17.919Z,5980
2016-07-06T05:31:19.693Z,6260
2016-07-06T05:32:17.990Z,20896
2016-07-06T05:33:18.829Z,22240
2016-07-06T05:34:18.006Z,22368
2016-07-06T05:46:34.760Z,24032
2016-07-06T05:47:34.951Z,31776
2016-07-06T05:48:34.791Z,15260
2016-07-06T05:49:34.806Z,14544
2016-07-06T05:50:34.810Z,17408
2016-07-06T05:51:35.585Z,17088
2016-07-06T05:52:49.907Z,21120
2016-07-06T05:53:34.923Z,18688
2016-07-06T05:54:34.825Z,27008
2016-07-06T05:55:34.828Z,22528
2016-07-06T05:56:35.771Z,5808
2016-07-06T05:57:34.819Z,14508
2016-07-06T05:58:34.834Z,12608
2016-07-06T05:59:34.808Z,14692
2016-07-06T06:00:38.501Z,13540
2016-07-06T06:01:34.780Z,8100
2016-07-06T06:02:34.799Z,17216
2016-07-06T06:03:34.896Z,8440
2016-07-06T06:04:39.303Z,10444
2016-07-06T06:05:35.072Z,6672
2016-07-06T06:06:34.810Z,7684
2016-07-06T06:07:34.838Z,5256
2016-07-06T06:08:46.935Z,5944
2016-07-06T06:09:34.917Z,4940
2016-07-06T06:10:34.830Z,4516
2016-07-06T06:11:34.893Z,5928
2016-07-06T06:12:34.806Z,7228
2016-07-06T06:13:34.808Z,7004
2016-07-06T06:14:34.790Z,5440
2016-07-06T06:15:35.028Z,3804
2016-07-06T06:16:39.328Z,4124
2016-07-06T06:17:35.039Z,4640
2016-07-06T06:18:34.823Z,4140
2016-07-06T06:19:34.906Z,4216
2016-07-06T06:20:34.804Z,5064
2016-07-06T06:21:38.013Z,7632
2016-07-06T06:22:44.868Z,8016
2016-07-06T06:23:34.808Z,7128
2016-07-06T06:24:34.817Z,7452
2016-07-06T06:25:41.191Z,8104
2016-07-06T06:26:37.536Z,7312
2016-07-06T06:27:35.118Z,6900
2016-07-06T06:28:34.813Z,7096
2016-07-06T06:29:35.035Z,7460
2016-07-06T06:30:40.832Z,8436
2016-07-06T06:31:48.060Z,9040
2016-07-06T06:32:34.910Z,9488
2016-07-06T06:33:39.347Z,5068
2016-07-06T06:34:34.813Z,6656
2016-07-06T06:35:35.325Z,9276
2016-07-06T06:36:36.273Z,10936
2016-07-06T06:37:34.826Z,7276
2016-07-06T06:38:34.851Z,7276
2016-07-06T06:39:34.870Z,6984
2016-07-06T06:40:36.842Z,6340
2016-07-06T06:41:36.108Z,6552
2016-07-06T06:42:45.241Z,6940
2016-07-06T06:43:47.657Z,5876
2016-07-06T06:44:34.922Z,6012
2016-07-06T06:45:34.912Z,7724
2016-07-06T06:46:34.827Z,6532
2016-07-06T06:47:34.852Z,6364
2016-07-06T06:48:34.850Z,6908
2016-07-06T06:49:35.196Z,8264
2016-07-06T06:50:35.107Z,6876
2016-07-06T06:51:34.838Z,10552
2016-07-06T06:52:35.940Z,10208
2016-07-06T06:53:34.928Z,9452
2016-07-06T06:54:34.882Z,9864
2016-07-06T07:06:52.334Z,5908
2016-07-06T07:07:52.328Z,6152
2016-07-06T07:08:54.328Z,10492
2016-07-06T07:09:52.389Z,10644
2016-07-06T07:11:04.323Z,7552
2016-07-06T07:11:52.823Z,10528
2016-07-06T07:12:52.638Z,7916
2016-07-06T07:13:52.402Z,13392
2016-07-06T07:14:55.409Z,11788
2016-07-06T07:15:52.355Z,13244
2016-07-06T07:16:52.385Z,10680
2016-07-06T07:17:52.840Z,8124
2016-07-06T07:18:58.755Z,9412
2016-07-06T07:19:52.314Z,10384
2016-07-06T07:20:57.114Z,10468
2016-07-06T07:21:52.501Z,9612
2016-07-06T07:22:52.364Z,6476
2016-07-06T07:23:52.345Z,7144
2016-07-06T07:24:52.299Z,8588
2016-07-06T07:25:52.471Z,9560
2016-07-06T07:26:52.372Z,8912
2016-07-06T07:27:52.636Z,9020
2016-07-06T07:28:52.326Z,8972
2016-07-06T07:29:58.925Z,7120
2016-07-06T07:30:52.466Z,7084
2016-07-06T07:31:53.562Z,8172
2016-07-06T07:32:53.319Z,6224
2016-07-06T07:33:52.339Z,6060
2016-07-06T07:34:52.292Z,7596
2016-07-06T07:35:52.306Z,9656
2016-07-06T07:36:57.703Z,12060
2016-07-06T07:37:53.161Z,9380
2016-07-06T07:39:12.212Z,11340
2016-07-06T07:39:52.322Z,10560
2016-07-06T07:40:52.641Z,12412
2016-07-06T07:41:52.323Z,9844
2016-07-06T07:42:52.330Z,9988
2016-07-06T07:43:52.246Z,9028
2016-07-06T07:44:52.383Z,9124
2016-07-06T07:45:52.699Z,7844
2016-07-06T07:46:53.816Z,6928
2016-07-06T07:47:54.917Z,8016
2016-07-06T07:48:52.912Z,11236
2016-07-06T07:49:52.465Z,44640
2016-07-06T07:50:53.156Z,58784
2016-07-06T07:51:57.062Z,68864
2016-07-06T07:52:53.027Z,65792
2016-07-06T07:53:54.073Z,14672
2016-07-06T07:54:52.351Z,70496
2016-07-06T07:55:52.338Z,41504
2016-07-06T07:56:54.582Z,76960
2016-07-06T07:57:52.313Z,30848
2016-07-06T07:59:42.371Z,19904
2016-07-06T08:00:01.926Z,62400
2016-07-06T08:00:59.092Z,63872
2016-07-06T08:02:01.917Z,67392
2016-07-06T08:03:00.717Z,63808
2016-07-06T08:03:59.113Z,62816
2016-07-06T08:04:59.097Z,60544
2016-07-06T08:06:14.901Z,14948
2016-07-06T08:07:01.449Z,68320
2016-07-06T08:08:59.433Z,77728
2016-07-06T08:10:00.538Z,67584
2016-07-06T08:10:59.131Z,6504
2016-07-06T08:11:59.115Z,27424
2016-07-06T08:13:02.059Z,61120
2016-07-06T08:13:59.431Z,68864
2016-07-06T08:14:59.344Z,69440
2016-07-06T08:16:00.950Z,64384
2016-07-06T08:16:59.254Z,60096
2016-07-06T08:17:59.138Z,58272
2016-07-06T08:19:00.128Z,60704
2016-07-06T08:19:59.516Z,66368
2016-07-06T08:21:00.212Z,69728
2016-07-06T08:22:04.614Z,69440
2016-07-06T08:22:59.343Z,63104
2016-07-06T08:23:59.162Z,59104
2016-07-06T08:24:59.178Z,41696
2016-07-06T08:26:02.828Z,55872
2016-07-06T08:26:59.358Z,59552
2016-07-06T08:27:59.196Z,65600
2016-07-06T08:29:10.380Z,70112
2016-07-06T08:29:59.144Z,23744
2016-07-06T08:30:59.095Z,17120
2016-07-06T08:31:59.158Z,17536
2016-07-06T08:32:59.079Z,9012
2016-07-06T08:33:59.072Z,9676
2016-07-06T08:34:59.136Z,51040
2016-07-06T08:35:59.157Z,54432
2016-07-06T08:36:59.093Z,41696
2016-07-06T08:37:59.713Z,16224
2016-07-06T08:38:59.107Z,64640
2016-07-06T08:39:59.320Z,14528
2016-07-06T08:40:59.100Z,75168
2016-07-06T08:41:59.123Z,10004
2016-07-06T08:42:59.120Z,56256
2016-07-06T08:43:59.164Z,54944
2016-07-06T08:44:59.199Z,57728
2016-07-06T08:46:02.367Z,63360
2016-07-06T08:46:59.368Z,68352
2016-07-06T08:47:59.222Z,70240
2016-07-06T08:49:03.207Z,67296
2016-07-06T08:49:59.226Z,62496
2016-07-06T08:50:59.129Z,56704
2016-07-06T08:51:59.487Z,56192
2016-07-06T08:52:59.113Z,22624
2016-07-06T08:54:00.150Z,67136
2016-07-06T08:54:59.166Z,72576
2016-07-06T08:55:59.125Z,73824
2016-07-06T08:56:59.524Z,24512
2016-07-06T08:58:00.494Z,23840
2016-07-06T08:58:59.138Z,58976
2016-07-06T08:59:59.794Z,20000
2016-07-06T09:00:59.295Z,10008
2016-07-06T09:01:59.129Z,7940
2016-07-06T09:03:00.199Z,18016
2016-07-06T09:03:59.536Z,69536
2016-07-06T09:05:01.610Z,67872
2016-07-06T09:05:59.166Z,66528
2016-07-06T09:06:59.880Z,69824
2016-07-06T09:07:59.561Z,76832
2016-07-06T09:09:01.061Z,10544
2016-07-06T09:09:59.595Z,10172
2016-07-06T09:11:03.981Z,8488
2016-07-06T09:11:59.225Z,15320
2016-07-06T09:12:59.264Z,42336
2016-07-06T09:13:59.203Z,8324
2016-07-06T09:14:59.149Z,7368
2016-07-06T09:16:14.265Z,86912
2016-07-06T09:17:11.811Z,89504
2016-07-06T09:17:59.132Z,90880
2016-07-06T09:18:59.622Z,95616
2016-07-06T09:19:59.146Z,101856
2016-07-06T09:21:00.864Z,103648
2016-07-06T09:21:59.173Z,101216
2016-07-06T09:22:59.190Z,100224
2016-07-06T09:24:07.131Z,101664
2016-07-06T09:25:03.463Z,85920
2016-07-06T09:25:59.503Z,10000
2016-07-06T09:26:59.235Z,44960
2016-07-06T09:27:59.738Z,98400
2016-07-06T09:28:59.183Z,97280
2016-07-06T09:29:59.155Z,99488
2016-07-06T09:31:08.152Z,99328
2016-07-06T09:31:59.582Z,98112
2016-07-06T09:32:59.204Z,103584
2016-07-06T09:34:01.779Z,104800
2016-07-06T09:34:59.205Z,107456
2016-07-06T09:35:59.122Z,52000
2016-07-06T09:37:01.812Z,116320
2016-07-06T09:38:16.001Z,115552
2016-07-06T09:38:59.159Z,113312
2016-07-06T09:40:06.410Z,33056
2016-07-06T09:40:59.153Z,110720
2016-07-06T09:41:59.174Z,8576
2016-07-06T09:42:59.326Z,13680
2016-07-06T09:43:59.187Z,9780
2016-07-06T09:45:03.335Z,110656
2016-07-06T09:45:59.564Z,113888
2016-07-06T09:59:00.176Z,6392
2016-07-06T09:59:55.446Z,8572
2016-07-06T10:00:20.976Z,26080
2016-07-06T10:01:17.428Z,7496
2016-07-06T10:02:21.529Z,16212
2016-07-06T10:03:17.344Z,104224
2016-07-06T10:04:18.055Z,99040
2016-07-06T10:05:17.405Z,102144
2016-07-06T10:06:16.862Z,28896
2016-07-06T10:07:16.803Z,77760
2016-07-06T10:08:28.075Z,13428
2016-07-06T10:09:16.817Z,12272
2016-07-06T10:10:16.896Z,11852
2016-07-06T10:11:18.657Z,11044
2016-07-06T10:12:22.851Z,9224
2016-07-06T10:13:24.109Z,7216
2016-07-06T10:14:16.908Z,6276
2016-07-06T10:15:17.175Z,5452
2016-07-06T10:16:20.238Z,5000
2016-07-06T10:17:22.276Z,5356
2016-07-06T10:18:22.683Z,5736
2016-07-06T10:19:20.292Z,6132
2016-07-06T10:20:16.851Z,6728
2016-07-06T10:21:18.879Z,7332
2016-07-06T10:22:17.437Z,7488
2016-07-06T10:23:16.797Z,7204
2016-07-06T10:24:23.464Z,6640
2016-07-06T10:25:16.845Z,6464
2016-07-06T10:26:18.467Z,7064
2016-07-06T10:27:16.854Z,6944
2016-07-06T10:28:21.586Z,7412
2016-07-06T10:29:20.535Z,8252
2016-07-06T10:30:16.827Z,10604
2016-07-06T10:31:16.824Z,94592
2016-07-06T10:32:16.944Z,104896
2016-07-06T10:33:18.160Z,13172
2016-07-06T10:34:17.079Z,11016
2016-07-06T10:35:16.842Z,21184
2016-07-06T10:36:16.819Z,93568
2016-07-06T10:37:16.856Z,9572
2016-07-06T10:38:28.727Z,7312
2016-07-06T10:39:23.974Z,62304
2016-07-06T10:40:19.875Z,55200
2016-07-06T10:41:32.840Z,53024
2016-07-06T10:42:18.099Z,58272
2016-07-06T10:43:16.822Z,67584
2016-07-06T10:44:30.227Z,83456
2016-07-06T10:45:17.622Z,96032
2016-07-06T10:46:16.885Z,105920
2016-07-06T10:47:16.995Z,109152
2016-07-06T10:48:25.699Z,104096
2016-07-06T10:49:17.554Z,99808
2016-07-06T10:50:28.707Z,17536
2016-07-06T10:51:18.541Z,14612
2016-07-06T10:52:16.848Z,13980
2016-07-06T10:53:17.001Z,54336
2016-07-06T10:54:16.854Z,14856
2016-07-06T10:55:19.721Z,14524
2016-07-06T10:56:21.043Z,14868
2016-07-06T10:57:17.536Z,18432
2016-07-06T11:00:29.671Z,10808
2016-07-06T11:00:52.120Z,10304
2016-07-06T11:02:21.802Z,12312
2016-07-06T11:02:46.674Z,13864
2016-07-06T11:03:47.429Z,10848
2016-07-06T11:04:49.652Z,8960
2016-07-06T11:05:45.939Z,10828
2016-07-06T11:06:51.060Z,13060
2016-07-06T11:08:03.057Z,17504
2016-07-06T11:08:46.501Z,12396
2016-07-06T11:09:46.468Z,17408
2016-07-06T11:10:46.451Z,114784
2016-07-06T11:11:47.520Z,111168
2016-07-06T11:12:46.433Z,90368
2016-07-06T11:13:46.466Z,41632
2016-07-06T11:14:46.451Z,22720
2016-07-06T11:15:46.443Z,16256
2016-07-06T11:16:54.825Z,13356
2016-07-06T11:17:46.417Z,10664
2016-07-06T11:18:46.459Z,8584
2016-07-06T11:19:46.450Z,6932
2016-07-06T11:20:46.441Z,6264
2016-07-06T11:21:46.498Z,6140
2016-07-06T11:22:46.447Z,6252
2016-07-06T11:23:48.904Z,6284
2016-07-06T11:24:46.751Z,6776
2016-07-06T11:25:45.992Z,7616
2016-07-06T11:26:50.433Z,9208
2016-07-06T11:27:46.419Z,11496
2016-07-06T11:28:46.539Z,13508
2016-07-06T11:29:52.040Z,49856
2016-07-06T11:30:46.410Z,61696
2016-07-06T11:31:46.493Z,24672
2016-07-06T11:32:46.507Z,14992
2016-07-06T11:33:46.503Z,10996
2016-07-06T11:34:48.018Z,10636
2016-07-06T11:35:46.434Z,14244
2016-07-06T11:36:46.491Z,24992
2016-07-06T11:37:46.531Z,69088
2016-07-06T11:38:46.535Z,41600
2016-07-06T11:39:47.374Z,13816
2016-07-06T11:40:46.685Z,14432
2016-07-06T11:41:49.648Z,25664
2016-07-06T11:42:50.048Z,18272
2016-07-06T11:43:47.228Z,95456
2016-07-06T11:44:46.944Z,101504
2016-07-06T11:57:05.017Z,112256
2016-07-06T11:58:11.004Z,104192
2016-07-06T11:59:04.532Z,99648
2016-07-06T12:00:04.639Z,96960
2016-07-06T12:01:05.464Z,98144
2016-07-06T12:02:04.553Z,99712
2016-07-06T12:03:04.637Z,98400
2016-07-06T12:04:04.415Z,92224
2016-07-06T12:05:07.687Z,84576
2016-07-06T12:06:04.863Z,85376
2016-07-06T12:07:05.412Z,85568
2016-07-06T12:08:04.419Z,13520
2016-07-06T12:09:04.477Z,36480
2016-07-06T12:10:15.684Z,59456
2016-07-06T12:11:04.852Z,75616
2016-07-06T12:12:04.406Z,80160
2016-07-06T12:13:06.623Z,80672
2016-07-06T12:14:04.719Z,82336
2016-07-06T12:15:04.545Z,80224
2016-07-06T12:16:05.893Z,73920
2016-07-06T12:17:04.387Z,74816
2016-07-06T12:18:04.468Z,39200
2016-07-06T12:19:04.464Z,89280
2016-07-06T12:20:04.412Z,13944
2016-07-06T12:21:04.546Z,15500
2016-07-06T12:22:04.414Z,18752
2016-07-06T12:23:14.926Z,20800
2016-07-06T12:24:17.749Z,17088
2016-07-06T12:25:04.750Z,30048
2016-07-06T12:26:14.770Z,21440
2016-07-06T12:27:05.103Z,65472
2016-07-06T12:28:04.506Z,22400
2016-07-06T12:29:04.554Z,50496
2016-07-06T12:30:05.355Z,19552
2016-07-06T12:31:07.793Z,20096
2016-07-06T12:32:05.585Z,74560
2016-07-06T12:33:04.723Z,62080
2016-07-06T12:34:15.529Z,50208
2016-07-06T12:35:04.650Z,99648
2016-07-06T12:36:12.612Z,53792
2016-07-06T12:37:10.492Z,43936
2016-07-06T12:38:06.896Z,94272
2016-07-06T12:51:08.187Z,92544
2016-07-06T12:51:56.718Z,29856
2016-07-06T12:52:27.414Z,13868
2016-07-06T12:53:26.155Z,96928
2016-07-06T12:54:31.320Z,92672
2016-07-06T12:55:29.555Z,92224
2016-07-06T12:56:26.782Z,92352
2016-07-06T12:57:26.101Z,81568
2016-07-06T12:58:29.828Z,50848
2016-07-06T12:59:29.877Z,11000
2016-07-06T13:00:26.510Z,10120
2016-07-06T13:12:47.898Z,11612
2016-07-06T13:13:44.773Z,16928
2016-07-06T13:14:43.787Z,22656
2016-07-06T13:15:43.986Z,73216
2016-07-06T13:16:43.734Z,99392
2016-07-06T13:17:43.713Z,101568
2016-07-06T13:18:44.316Z,98176
2016-07-06T13:19:45.109Z,92928
2016-07-06T13:20:43.868Z,91008
2016-07-06T13:21:46.435Z,87616
2016-07-06T13:22:43.955Z,89024
2016-07-06T13:23:44.614Z,88896
2016-07-06T13:24:43.928Z,90112
2016-07-06T13:25:44.170Z,89824
2016-07-06T13:26:45.009Z,90464
2016-07-06T13:27:45.107Z,89664
2016-07-06T13:28:44.349Z,95552
2016-07-06T13:29:43.769Z,100032
2016-07-06T13:30:46.137Z,101152
2016-07-06T13:31:43.865Z,89920
2016-07-06T13:32:43.971Z,88704
2016-07-06T13:33:43.743Z,81632
2016-07-06T13:34:43.873Z,82016
2016-07-06T13:35:43.859Z,86752
2016-07-06T13:36:43.961Z,84064
2016-07-06T13:37:43.802Z,86816
2016-07-06T13:38:44.318Z,89984
2016-07-06T13:39:44.810Z,16800
2016-07-06T13:40:45.568Z,74624
2016-07-06T13:41:43.808Z,87936
2016-07-06T13:42:43.783Z,70560
2016-07-06T13:43:43.810Z,44352
2016-07-06T13:44:43.813Z,21728
2016-07-06T13:45:43.774Z,18624
2016-07-06T13:46:48.332Z,15776
2016-07-06T13:47:43.840Z,16672
2016-07-06T13:48:43.856Z,16576
2016-07-06T13:49:43.830Z,15348
2016-07-06T13:50:53.959Z,14540
2016-07-06T13:51:45.511Z,12380
2016-07-06T13:52:44.116Z,13240
2016-07-06T13:53:55.047Z,11672
2016-07-06T13:54:43.859Z,11056
2016-07-06T13:55:46.972Z,13200
2016-07-06T13:56:43.954Z,11768
2016-07-06T13:57:43.871Z,12408
2016-07-06T13:58:43.821Z,11784
2016-07-06T13:59:43.834Z,10392
2016-07-06T14:01:09.245Z,10500
2016-07-06T14:01:45.024Z,10588
2016-07-06T14:03:04.293Z,11208
2016-07-06T14:03:43.863Z,10964
2016-07-06T14:04:43.915Z,9776
2016-07-06T14:05:46.310Z,9664
2016-07-06T14:07:03.359Z,8816
2016-07-06T14:07:45.845Z,8928
2016-07-06T14:08:47.407Z,8732
2016-07-06T14:09:44.035Z,8836
2016-07-06T14:10:45.567Z,10484
2016-07-06T14:11:43.859Z,11452
2016-07-06T14:12:44.868Z,10480
2016-07-06T14:13:43.883Z,10240
2016-07-06T14:14:43.846Z,11808
2016-07-06T14:15:43.862Z,12372
2016-07-06T14:16:43.857Z,12308
2016-07-06T14:17:43.779Z,11168
2016-07-06T14:18:43.892Z,11256
2016-07-06T14:19:50.795Z,10248
2016-07-06T14:20:47.485Z,9712
2016-07-06T14:21:54.547Z,10260
2016-07-06T14:22:43.789Z,10096
2016-07-06T14:23:49.122Z,9996
2016-07-06T14:24:43.875Z,9824
2016-07-06T14:25:45.256Z,9572
2016-07-06T14:26:44.245Z,9448
2016-07-06T14:27:44.343Z,8932
2016-07-06T14:28:44.549Z,8988
2016-07-06T14:29:44.866Z,8284
2016-07-06T14:30:43.949Z,7956
2016-07-06T14:31:44.250Z,7460
2016-07-06T14:32:44.867Z,7060
2016-07-06T14:33:47.167Z,6612
2016-07-06T14:34:43.860Z,6356
2016-07-06T14:35:44.048Z,6836
2016-07-06T14:36:44.506Z,8680
2016-07-06T14:46:01.505Z,8588
2016-07-06T14:47:02.079Z,8436
2016-07-06T14:48:01.837Z,8504
2016-07-06T14:49:11.742Z,9664
2016-07-06T14:50:04.997Z,9660
2016-07-06T14:51:03.065Z,8748
2016-07-06T14:52:01.435Z,7640
2016-07-06T14:53:01.612Z,6744
2016-07-06T14:54:01.499Z,6788
2016-07-06T14:55:01.750Z,7032
2016-07-06T14:56:01.482Z,7348
2016-07-06T14:57:02.216Z,7212
2016-07-06T14:58:03.819Z,6428
2016-07-06T14:59:02.083Z,6640
2016-07-06T15:00:01.553Z,7268
2016-07-06T15:01:01.567Z,7732
2016-07-06T15:02:01.785Z,7304
2016-07-06T15:04:37.957Z,5388
2016-07-06T15:04:56.687Z,5156
2016-07-06T15:05:56.539Z,4784
2016-07-06T15:06:57.220Z,4568
2016-07-06T15:07:56.517Z,4636
2016-07-06T15:08:57.421Z,4552